Time;durP1;ratioP1;P1;durP2;ratioP2;P2;SDS_P1;SDS_P2;PMS_P1;PMS_P2;Temp;Humidity;BMP_temperature;BMP_pressure;BME280_temperature;BME280_humidity;BME280_pressure;Samples;Min_cycle;Max_cycle;Signal;HPM_P1;HPM_P2
2021/06/25 00:00:16;;;;;;;16.08;13.40;;;;;;;17.15;85.57;100799.97;4986950;28;20125;-80
2021/06/25 00:02:41;;;;;;;17.70;15.15;;;;;;;17.12;85.73;100804.53;4986592;28;20094;-80
2021/06/25 00:05:08;;;;;;;20.55;17.55;;;;;;;17.13;85.60;100796.47;4986413;28;20042;-80
2021/06/25 00:07:34;;;;;;;20.17;14.77;;;;;;;17.06;86.39;100797.59;4985928;28;20039;-80
2021/06/25 00:09:59;;;;;;;15.65;14.05;;;;;;;16.99;86.57;100794.22;4969035;28;20042;-80
2021/06/25 00:12:25;;;;;;;19.77;15.35;;;;;;;16.92;86.56;100800.63;4986392;28;20039;-80
2021/06/25 00:14:50;;;;;;;15.77;13.63;;;;;;;16.92;87.43;100797.97;4985646;28;20042;-80
2021/06/25 00:17:15;;;;;;;19.40;15.52;;;;;;;16.83;87.48;100791.09;4986974;28;20038;-80
2021/06/25 00:19:41;;;;;;;18.65;16.02;;;;;;;16.83;87.39;100803.56;4986995;28;20035;-80
2021/06/25 00:22:06;;;;;;;16.58;14.20;;;;;;;16.82;87.79;100808.03;4986526;28;20042;-79
2021/06/25 00:24:32;;;;;;;17.80;15.82;;;;;;;16.75;88.40;100809.06;4967747;28;20042;-80
2021/06/25 00:26:57;;;;;;;18.67;16.70;;;;;;;16.70;88.43;100795.00;4985694;28;20034;-79
2021/06/25 00:29:23;;;;;;;23.00;19.42;;;;;;;16.65;88.85;100796.91;4985540;28;20482;-79
2021/06/25 00:31:48;;;;;;;21.40;18.42;;;;;;;16.69;88.86;100803.03;4986236;28;20535;-80
2021/06/25 00:34:14;;;;;;;20.77;17.27;;;;;;;16.70;88.45;100796.78;4985615;28;20034;-80
2021/06/25 00:36:40;;;;;;;18.35;16.10;;;;;;;16.70;89.02;100799.47;4985652;28;20510;-80
2021/06/25 00:39:05;;;;;;;17.90;15.98;;;;;;;16.72;88.34;100797.63;4985511;28;20049;-79
2021/06/25 00:41:31;;;;;;;19.15;17.05;;;;;;;16.67;88.26;100792.41;4986337;28;20031;-80
2021/06/25 00:43:56;;;;;;;18.60;16.52;;;;;;;16.58;88.67;100800.66;4985656;28;20042;-80
2021/06/25 00:46:22;;;;;;;18.10;16.08;;;;;;;16.54;88.94;100789.22;4984983;28;20042;-80
2021/06/25 00:48:48;;;;;;;19.63;16.00;;;;;;;16.53;89.21;100787.47;4986090;28;20475;-80
2021/06/25 00:51:14;;;;;;;22.70;20.25;;;;;;;16.50;89.38;100787.53;4982530;28;20058;-80
2021/06/25 00:53:41;;;;;;;21.17;18.85;;;;;;;16.47;89.63;100789.41;4986365;28;20069;-80
2021/06/25 00:56:06;;;;;;;22.20;19.27;;;;;;;16.47;89.79;100787.59;4968850;28;20088;-80
2021/06/25 00:58:32;;;;;;;21.70;18.05;;;;;;;16.46;90.30;100791.19;4985652;28;20062;-80
2021/06/25 01:00:57;;;;;;;18.70;16.15;;;;;;;16.51;89.83;100788.41;4986709;28;20035;-81
2021/06/25 01:03:22;;;;;;;22.48;19.80;;;;;;;16.47;89.48;100787.59;4987428;28;20039;-81
2021/06/25 01:05:48;;;;;;;20.98;18.27;;;;;;;16.49;89.86;100783.13;4986226;28;20034;-81
2021/06/25 01:08:14;;;;;;;20.60;18.27;;;;;;;16.51;90.01;100775.97;4986500;28;20042;-81
2021/06/25 01:10:41;;;;;;;25.77;20.92;;;;;;;16.48;90.01;100776.06;4986378;28;20039;-81
2021/06/25 01:13:07;;;;;;;19.17;16.45;;;;;;;16.49;90.04;100766.28;4969018;28;20027;-81
2021/06/25 01:15:33;;;;;;;21.98;17.38;;;;;;;16.48;89.95;100767.16;4968546;28;20038;-81
2021/06/25 01:17:58;;;;;;;20.90;18.05;;;;;;;16.50;90.17;100765.34;4985406;28;20467;-80
2021/06/25 01:20:29;;;;;;;22.98;20.45;;;;;;;16.50;90.09;100755.56;4985674;28;20042;-81
2021/06/25 01:22:56;;;;;;;21.13;18.92;;;;;;;16.53;91.16;100760.81;4987225;28;20050;-81
2021/06/25 01:25:25;;;;;;;18.00;15.25;;;;;;;16.60;91.42;100758.84;4966910;28;20042;-81
2021/06/25 01:27:53;;;;;;;17.33;15.55;;;;;;;16.69;91.02;100755.03;4985715;28;20410;-81
2021/06/25 01:30:25;;;;;;;20.42;17.98;;;;;;;16.76;90.64;100751.31;4968164;28;20054;-81
2021/06/25 01:32:51;;;;;;;;;;;;;;;16.75;90.21;100754.91;4986167;28;20042;-81
2021/06/25 01:35:17;;;;;;;16.55;14.85;;;;;;;16.84;90.00;100757.31;4985121;28;19973;-81
2021/06/25 01:37:44;;;;;;;19.67;17.35;;;;;;;16.90;89.96;100757.16;4985670;28;20042;-81
2021/06/25 01:40:11;;;;;;;21.02;18.75;;;;;;;16.90;89.46;100754.50;4983670;28;20057;-81
2021/06/25 01:42:39;;;;;;;19.25;17.25;;;;;;;16.95;89.34;100752.56;4985682;28;20042;-81
2021/06/25 01:45:12;;;;;;;18.27;16.38;;;;;;;16.98;88.65;100747.16;4984976;28;20407;-80
2021/06/25 01:47:40;;;;;;;20.13;16.08;;;;;;;16.96;88.56;100748.13;4985949;28;20483;-81
2021/06/25 01:50:08;;;;;;;17.08;15.20;;;;;;;16.97;88.60;100750.72;4985982;28;20049;-81
2021/06/25 01:52:34;;;;;;;19.10;17.10;;;;;;;17.02;88.82;100743.47;4984870;28;20031;-81
2021/06/25 01:54:59;;;;;;;18.35;15.00;;;;;;;17.06;88.49;100738.94;4984997;28;20505;-81
2021/06/25 01:57:24;;;;;;;18.17;15.68;;;;;;;17.10;87.94;100735.22;4985170;28;20038;-81
2021/06/25 01:59:50;;;;;;;15.95;14.02;;;;;;;17.12;87.88;100730.72;4985179;28;20038;-81
2021/06/25 02:02:15;;;;;;;18.30;15.95;;;;;;;17.13;87.72;100734.28;4985774;28;20067;-81
2021/06/25 02:04:40;;;;;;;17.15;15.35;;;;;;;17.05;87.54;100738.03;4985083;28;20034;-81
2021/06/25 02:07:06;;;;;;;18.75;16.00;;;;;;;16.92;87.57;100728.66;4985583;28;20070;-80
2021/06/25 02:09:31;;;;;;;17.88;15.98;;;;;;;16.85;88.08;100721.78;4985470;28;20030;-81
2021/06/25 02:11:58;;;;;;;21.55;18.95;;;;;;;16.71;88.67;100730.09;4969151;28;20055;-81
2021/06/25 02:14:24;;;;;;;18.40;16.70;;;;;;;16.64;88.67;100721.44;4984467;28;20045;-81
2021/06/25 02:16:49;;;;;;;20.60;18.58;;;;;;;16.52;89.44;100724.41;4985293;28;20050;-81
2021/06/25 02:19:15;;;;;;;17.95;16.35;;;;;;;16.49;89.95;100719.19;4985657;28;20035;-81
2021/06/25 02:21:40;;;;;;;20.02;17.92;;;;;;;16.39;90.37;100712.34;4985330;28;20043;-81
2021/06/25 02:24:06;;;;;;;19.75;17.83;;;;;;;16.36;90.53;100707.13;4985709;28;20126;-81
2021/06/25 02:26:31;;;;;;;18.58;16.75;;;;;;;16.36;90.53;100712.44;4984880;28;20031;-81
2021/06/25 02:28:57;;;;;;;19.58;17.58;;;;;;;16.36;90.67;100705.31;4985582;28;20388;-81
2021/06/25 02:31:22;;;;;;;19.42;17.38;;;;;;;16.36;90.73;100709.78;4964733;28;20448;-81
2021/06/25 02:33:47;;;;;;;25.38;22.35;;;;;;;16.37;90.53;100708.84;4968075;28;20098;-81
2021/06/25 02:36:13;;;;;;;20.60;18.48;;;;;;;16.41;90.66;100718.53;4984118;28;20035;-81
2021/06/25 02:38:38;;;;;;;22.95;20.73;;;;;;;16.42;90.60;100712.28;4984524;28;20046;-81
2021/06/25 02:41:03;;;;;;;20.58;18.58;;;;;;;16.43;90.94;100711.38;4984822;28;20031;-81
2021/06/25 02:43:29;;;;;;;23.20;20.90;;;;;;;16.46;90.73;100705.94;4984742;28;20043;-81
2021/06/25 02:45:55;;;;;;;20.63;18.60;;;;;;;16.49;90.01;100705.00;4985016;28;20035;-81
2021/06/25 02:48:20;;;;;;;24.50;21.90;;;;;;;16.42;90.55;100710.47;4967485;28;20054;-81
2021/06/25 02:50:46;;;;;;;21.98;19.67;;;;;;;16.39;90.12;100715.03;4984613;28;20117;-81
2021/06/25 02:53:11;;;;;;;25.25;22.35;;;;;;;16.41;90.52;100710.53;4984598;28;20035;-81
2021/06/25 02:55:50;;;;;;;22.35;19.88;;;;;;;16.43;90.42;100719.38;4984275;28;20519;-81
2021/06/25 02:58:15;;;;;;;21.88;19.67;;;;;;;16.46;90.82;100716.59;4984423;28;20035;-81
2021/06/25 03:00:40;;;;;;;22.17;20.05;;;;;;;16.51;91.02;100720.03;4984244;28;20053;-81
2021/06/25 03:03:06;;;;;;;20.55;18.55;;;;;;;16.53;90.54;100718.19;4966750;28;20046;-81
2021/06/25 03:05:31;;;;;;;23.90;21.45;;;;;;;16.52;90.65;100716.44;4983853;28;20042;-81
2021/06/25 03:07:56;;;;;;;23.25;20.75;;;;;;;16.54;90.71;100727.06;4982908;28;20042;-81
2021/06/25 03:10:22;;;;;;;23.60;21.15;;;;;;;16.57;90.30;100725.16;4983569;28;20054;-81
2021/06/25 03:12:47;;;;;;;23.73;21.17;;;;;;;16.59;89.87;100722.47;4983822;28;20035;-81
2021/06/25 03:15:12;;;;;;;25.13;22.50;;;;;;;16.60;89.78;100729.53;4966236;28;20038;-81
2021/06/25 03:17:38;;;;;;;24.02;21.52;;;;;;;16.61;89.49;100723.28;4983846;28;20035;-81
2021/06/25 03:20:04;;;;;;;28.38;25.38;;;;;;;16.60;89.39;100735.75;4983580;28;20039;-81
2021/06/25 03:22:29;;;;;;;21.48;19.27;;;;;;;16.60;89.57;100734.88;4982980;28;20038;-81
2021/06/25 03:24:55;;;;;;;23.83;21.45;;;;;;;16.60;89.59;100741.06;4983162;28;20035;-81
2021/06/25 03:27:20;;;;;;;23.67;21.30;;;;;;;16.60;89.03;100734.88;4981925;28;20030;-81
2021/06/25 03:29:45;;;;;;;22.38;20.02;;;;;;;16.63;89.39;100740.97;4983124;28;20031;-81
2021/06/25 03:32:11;;;;;;;22.23;20.10;;;;;;;16.70;89.43;100740.81;4981804;28;20026;-81
2021/06/25 03:34:36;;;;;;;21.08;18.95;;;;;;;16.74;89.62;100737.13;4982845;28;20042;-81
2021/06/25 03:37:02;;;;;;;24.77;20.40;;;;;;;16.80;89.48;100737.88;4983801;28;20035;-81
2021/06/25 03:39:27;;;;;;;22.70;20.48;;;;;;;16.80;88.91;100731.69;4982623;28;20523;-81
2021/06/25 03:41:52;;;;;;;22.80;20.52;;;;;;;16.85;89.18;100733.31;4985740;28;20039;-81
2021/06/25 03:44:18;;;;;;;26.85;24.17;;;;;;;16.87;88.99;100738.56;4969038;28;20143;-81
2021/06/25 03:46:43;;;;;;;20.13;17.90;;;;;;;16.90;88.44;100733.19;4986975;28;20034;-81
2021/06/25 03:49:08;;;;;;;22.52;20.10;;;;;;;16.92;88.34;100738.44;4986702;28;20038;-81
2021/06/25 03:51:34;;;;;;;24.85;22.25;;;;;;;16.93;87.87;100738.41;4986440;28;20046;-81
2021/06/25 03:53:59;;;;;;;20.75;18.65;;;;;;;16.95;87.90;100747.25;4986753;28;20031;-81
2021/06/25 03:56:24;;;;;;;22.70;19.50;;;;;;;16.96;87.89;100748.97;4985374;28;20147;-81
2021/06/25 03:58:50;;;;;;;24.05;21.67;;;;;;;16.98;88.19;100740.94;4985736;28;20089;-80
2021/06/25 04:01:17;;;;;;;29.45;24.05;;;;;;;17.02;87.87;100748.78;4985256;28;20042;-80
2021/06/25 04:03:42;;;;;;;32.72;29.02;;;;;;;17.07;87.53;100746.00;4985447;28;20074;-80
2021/06/25 04:06:07;;;;;;;24.02;21.77;;;;;;;17.11;87.85;100746.75;4984339;28;20038;-80
2021/06/25 04:08:36;;;;;;;23.38;20.88;;;;;;;17.11;87.56;100747.66;4967110;28;20031;-81
2021/06/25 04:11:03;;;;;;;20.85;18.88;;;;;;;17.11;87.72;100744.09;4984212;28;20035;-80
2021/06/25 04:13:30;;;;;;;28.35;25.40;;;;;;;17.16;87.25;100744.84;4985030;28;20423;-80
2021/06/25 04:15:56;;;;;;;24.52;21.98;;;;;;;17.23;86.93;100741.06;4966142;28;20050;-80
2021/06/25 04:18:22;;;;;;;24.23;21.70;;;;;;;17.18;87.16;100737.66;4985175;28;20043;-80
2021/06/25 04:20:49;;;;;;;28.95;25.77;;;;;;;17.13;87.47;100744.94;4981069;28;20058;-80
2021/06/25 04:23:14;;;;;;;26.63;24.00;;;;;;;17.16;87.01;100740.41;4984147;28;20047;-80
2021/06/25 04:25:40;;;;;;;24.70;21.10;;;;;;;17.14;86.99;100739.56;4982512;28;20121;-80
2021/06/25 04:28:05;;;;;;;32.10;27.77;;;;;;;17.13;86.92;100739.59;4982400;28;20046;-80
2021/06/25 04:30:32;;;;;;;24.92;22.38;;;;;;;17.09;86.99;100750.38;4984314;28;20035;-80
2021/06/25 04:32:59;;;;;;;27.67;24.80;;;;;;;17.06;87.32;100758.47;4983912;28;20026;-80
2021/06/25 04:35:24;;;;;;;28.10;25.13;;;;;;;17.00;87.37;100753.31;4982606;28;20038;-80
2021/06/25 04:37:50;;;;;;;26.10;23.50;;;;;;;16.93;87.28;100749.06;4983752;28;20039;-80
2021/06/25 04:40:15;;;;;;;31.13;27.80;;;;;;;16.90;87.84;100754.50;4983918;28;20039;-80
2021/06/25 04:42:41;;;;;;;30.95;27.23;;;;;;;16.85;87.86;100746.63;4982808;28;20093;-80
2021/06/25 04:45:07;;;;;;;28.70;25.70;;;;;;;16.88;88.14;100751.00;4982515;28;20096;-80
2021/06/25 04:47:32;;;;;;;28.33;25.25;;;;;;;16.89;88.19;100747.41;4981466;28;20033;-80
2021/06/25 04:49:57;;;;;;;26.50;22.23;;;;;;;16.95;88.04;100757.00;4982883;28;20487;-80
2021/06/25 04:52:23;;;;;;;25.65;23.02;;;;;;;17.05;87.66;100753.16;4962642;28;20059;-80
2021/06/25 04:54:48;;;;;;;30.83;27.00;;;;;;;17.06;87.30;100755.78;4977604;28;20047;-80
2021/06/25 04:57:14;;;;;;;24.42;21.83;;;;;;;17.09;87.02;100750.38;4981979;28;20043;-80
2021/06/25 04:59:39;;;;;;;24.40;21.92;;;;;;;17.09;87.29;100747.69;4964842;28;20043;-80
2021/06/25 05:02:06;;;;;;;25.02;22.40;;;;;;;17.16;87.16;100751.06;4981874;28;20502;-80
2021/06/25 05:04:32;;;;;;;29.27;26.17;;;;;;;17.17;86.91;100749.28;4981649;28;20031;-80
2021/06/25 05:06:57;;;;;;;26.83;23.80;;;;;;;17.11;86.88;100744.09;4980882;28;20041;-80
2021/06/25 05:09:22;;;;;;;29.48;25.60;;;;;;;17.13;86.56;100742.28;4979143;28;20538;-80
2021/06/25 05:11:48;;;;;;;24.88;22.35;;;;;;;17.13;86.65;100744.94;4981336;28;20295;-80
2021/06/25 05:14:13;;;;;;;27.13;24.25;;;;;;;17.14;86.85;100747.56;4981005;28;20046;-80
2021/06/25 05:16:39;;;;;;;31.80;28.58;;;;;;;17.27;86.61;100753.41;4981511;28;20046;-80
2021/06/25 05:19:04;;;;;;;28.85;25.80;;;;;;;17.33;86.05;100755.88;4981455;28;20039;-80
2021/06/25 05:21:30;;;;;;;24.25;21.25;;;;;;;17.38;85.80;100753.09;4980555;28;20121;-80
2021/06/25 05:23:55;;;;;;;24.48;21.75;;;;;;;17.38;85.74;100756.63;4980911;28;20187;-80
2021/06/25 05:26:21;;;;;;;28.17;24.10;;;;;;;17.42;85.45;100757.38;4979851;28;20045;-80
2021/06/25 05:28:47;;;;;;;23.08;20.73;;;;;;;17.47;85.48;100761.66;4961650;28;20090;-80
2021/06/25 05:31:12;;;;;;;26.15;23.50;;;;;;;17.44;85.46;100759.09;4980289;28;20033;-80
2021/06/25 05:33:38;;;;;;;30.05;26.95;;;;;;;17.43;85.41;100761.81;4981412;28;20030;-79
2021/06/25 05:36:04;;;;;;;23.60;20.98;;;;;;;17.44;86.02;100768.88;4979980;28;20480;-80
2021/06/25 05:38:29;;;;;;;26.35;23.75;;;;;;;17.37;86.49;100773.56;4979569;28;20042;-80
2021/06/25 05:40:54;;;;;;;27.90;25.00;;;;;;;17.40;86.41;100783.25;4959041;29;20082;-80
2021/06/25 05:43:20;;;;;;;32.25;27.48;;;;;;;17.43;85.28;100781.38;4979676;28;20031;-79
2021/06/25 05:45:45;;;;;;;27.80;24.65;;;;;;;17.57;85.36;100785.41;4979102;28;20039;-80
2021/06/25 05:48:11;;;;;;;23.92;21.63;;;;;;;17.81;84.93;100776.63;4979079;28;20037;-80
2021/06/25 05:50:37;;;;;;;26.27;23.50;;;;;;;17.95;83.95;100777.09;4979020;28;20050;-80
2021/06/25 05:53:03;;;;;;;25.02;22.40;;;;;;;17.95;83.18;100773.53;4978177;28;20078;-79
2021/06/25 05:55:28;;;;;;;23.55;21.15;;;;;;;17.98;83.54;100776.09;4978067;28;20038;-80
2021/06/25 05:57:54;;;;;;;24.33;20.15;;;;;;;18.11;83.03;100773.91;4978190;28;20038;-79
2021/06/25 06:00:19;;;;;;;21.20;18.95;;;;;;;18.28;82.54;100778.66;4976522;28;20082;-79
2021/06/25 06:02:45;;;;;;;23.55;20.45;;;;;;;18.46;82.33;100779.84;4978299;28;20034;-80
2021/06/25 06:05:11;;;;;;;25.77;23.25;;;;;;;18.52;81.69;100780.50;4977130;28;20498;-79
2021/06/25 06:07:36;;;;;;;22.73;20.40;;;;;;;18.57;80.98;100781.19;4978056;28;20031;-79
2021/06/25 06:10:03;;;;;;;24.52;21.90;;;;;;;18.67;81.61;100784.41;4958338;28;20435;-79
2021/06/25 06:12:28;;;;;;;24.95;21.05;;;;;;;18.78;80.86;100784.94;4976911;28;20049;-79
2021/06/25 06:14:54;;;;;;;23.25;20.85;;;;;;;18.77;80.68;100787.69;4978323;28;20043;-79
2021/06/25 06:17:21;;;;;;;25.13;22.27;;;;;;;18.68;80.20;100795.97;4977769;28;20045;-79
2021/06/25 06:19:52;;;;;;;23.02;20.67;;;;;;;18.68;80.38;100795.97;4977782;28;20050;-79
2021/06/25 06:33:20;;;;;;;24.00;21.50;;;;;;;18.75;79.78;100795.75;4978657;28;20495;-79
2021/06/25 06:35:45;;;;;;;26.83;22.85;;;;;;;18.92;79.66;100787.13;4978603;28;20478;-79
2021/06/25 06:38:11;;;;;;;23.70;21.00;;;;;;;19.00;78.82;100800.22;4962189;28;20118;-79
2021/06/25 06:40:36;;;;;;;25.52;22.63;;;;;;;19.12;78.75;100793.53;4960945;28;20058;-79
2021/06/25 06:43:02;;;;;;;25.38;22.67;;;;;;;19.25;78.68;100793.00;4979639;28;20050;-79
2021/06/25 06:45:28;;;;;;;25.63;22.73;;;;;;;19.39;78.10;100788.97;4978609;28;20129;-79
2021/06/25 06:47:53;;;;;;;23.58;21.13;;;;;;;19.47;78.12;100798.41;4955235;28;20042;-79
2021/06/25 06:50:19;;;;;;;23.98;20.92;;;;;;;19.57;77.48;100798.03;4959247;29;20059;-79
2021/06/25 06:52:50;;;;;;;26.45;21.55;;;;;;;19.59;77.27;100799.72;4975630;28;20451;-79
2021/06/25 06:55:18;;;;;;;23.90;21.48;;;;;;;19.52;76.28;100789.31;4978763;28;20041;-79
2021/06/25 06:57:44;;;;;;;23.25;19.45;;;;;;;19.46;77.49;100795.78;4979519;28;20109;-79
2021/06/25 07:00:10;;;;;;;23.13;19.13;;;;;;;19.52;76.71;100800.03;4979153;28;20507;-79
2021/06/25 07:02:37;;;;;;;21.77;19.45;;;;;;;19.40;77.90;100794.22;4959150;28;20041;-79
2021/06/25 07:05:04;;;;;;;23.35;20.30;;;;;;;19.46;76.94;100802.00;4979759;28;20031;-79
2021/06/25 07:07:29;;;;;;;22.33;20.05;;;;;;;19.40;77.19;100810.28;4979447;28;20507;-79
2021/06/25 07:09:54;;;;;;;21.70;19.58;;;;;;;19.49;76.93;100801.03;4979783;28;20038;-79
2021/06/25 07:12:20;;;;;;;19.95;17.63;;;;;;;19.40;77.12;100806.75;4980284;28;20122;-79
2021/06/25 07:14:45;;;;;;;20.98;18.77;;;;;;;19.61;76.29;100805.91;4979290;28;20379;-79
2021/06/25 07:17:10;;;;;;;24.75;19.83;;;;;;;19.68;76.81;100807.44;4981081;28;20038;-79
2021/06/25 07:19:35;;;;;;;21.17;18.83;;;;;;;19.86;75.86;100815.69;4982791;28;20039;-79
2021/06/25 07:22:01;;;;;;;20.77;17.42;;;;;;;19.91;75.26;100805.63;4964443;28;20043;-79
2021/06/25 07:24:26;;;;;;;18.52;15.23;;;;;;;19.86;74.43;100807.66;4962905;28;20038;-79
2021/06/25 07:26:51;;;;;;;19.00;16.63;;;;;;;20.00;75.24;100802.59;4983278;28;20491;-79
2021/06/25 07:29:17;;;;;;;17.60;15.43;;;;;;;20.31;74.03;100804.00;4983305;28;20031;-79
2021/06/25 07:31:42;;;;;;;20.27;17.55;;;;;;;20.47;72.76;100801.56;4983017;28;20038;-79
2021/06/25 07:34:08;;;;;;;17.40;15.13;;;;;;;20.52;72.26;100803.09;4982658;28;20038;-79
2021/06/25 07:36:33;;;;;;;19.30;17.23;;;;;;;20.70;71.14;100812.19;4982188;28;20406;-79
2021/06/25 07:38:58;;;;;;;20.40;18.27;;;;;;;20.62;72.13;100810.75;4981866;28;20044;-79
2021/06/25 07:41:24;;;;;;;18.65;16.67;;;;;;;20.68;71.44;100810.50;4980285;28;20049;-79
2021/06/25 07:43:49;;;;;;;19.30;17.02;;;;;;;20.65;71.02;100810.66;4981638;28;20109;-79
2021/06/25 07:46:14;;;;;;;20.60;17.23;;;;;;;20.67;72.24;100809.63;4981371;28;20075;-79
2021/06/25 07:48:40;;;;;;;19.48;15.90;;;;;;;20.73;69.69;100811.19;4981357;28;20038;-79
2021/06/25 07:51:06;;;;;;;17.13;15.45;;;;;;;20.64;70.06;100806.19;4981481;28;20049;-79
2021/06/25 07:53:31;;;;;;;15.32;13.70;;;;;;;20.71;70.11;100802.31;4981540;28;20035;-79
2021/06/25 07:55:56;;;;;;;17.05;15.27;;;;;;;20.89;70.85;100803.31;4980875;28;20030;-79
2021/06/25 07:58:22;;;;;;;23.02;16.83;;;;;;;21.10;69.83;100806.84;4981061;28;20502;-79
2021/06/25 08:00:47;;;;;;;20.40;17.13;;;;;;;20.92;69.53;100805.88;4982039;28;20042;-79
2021/06/25 08:03:13;;;;;;;18.20;13.55;;;;;;;20.92;69.78;100798.69;4981254;28;20077;-79
2021/06/25 08:05:38;;;;;;;14.20;12.65;;;;;;;21.04;69.04;100799.06;4981341;28;20066;-79
2021/06/25 08:08:04;;;;;;;16.83;15.15;;;;;;;21.26;67.79;100794.47;4981444;28;20101;-79
2021/06/25 08:10:30;;;;;;;17.92;15.95;;;;;;;21.29;67.81;100796.13;4962267;28;20054;-79
2021/06/25 08:12:55;;;;;;;16.05;13.68;;;;;;;21.54;67.64;100787.84;4981914;28;20070;-79
2021/06/25 08:15:21;;;;;;;14.88;12.77;;;;;;;21.81;67.43;100786.50;4981527;28;20046;-79
2021/06/25 08:17:46;;;;;;;16.55;12.60;;;;;;;21.99;65.65;100781.16;4981690;28;20034;-79
2021/06/25 08:20:12;;;;;;;16.13;12.70;;;;;;;22.32;65.50;100778.59;4980498;28;20065;-78
2021/06/25 08:22:37;;;;;;;15.95;11.80;;;;;;;22.51;63.37;100790.19;4962743;28;20089;-79
2021/06/25 08:25:03;;;;;;;11.35;9.18;;;;;;;22.58;61.88;100785.34;4980566;28;20046;-79
2021/06/25 08:27:29;;;;;;;13.20;11.30;;;;;;;22.66;62.52;100780.44;4961946;28;20043;-79
2021/06/25 08:29:55;;;;;;;13.43;11.82;;;;;;;22.77;61.59;100779.88;4979864;28;20034;-79
2021/06/25 08:32:22;;;;;;;10.07;8.30;;;;;;;23.08;61.14;100779.13;4979755;28;20034;-79
2021/06/25 08:34:47;;;;;;;8.23;6.68;;;;;;;23.70;58.57;100770.31;4978716;28;20035;-79
2021/06/25 08:37:13;;;;;;;11.45;9.60;;;;;;;24.28;58.75;100778.59;4979339;28;20047;-79
2021/06/25 08:39:38;;;;;;;14.15;10.07;;;;;;;24.24;57.38;100770.81;4978675;28;20094;-79
2021/06/25 08:42:05;;;;;;;13.15;11.00;;;;;;;24.34;56.06;100765.69;4975556;28;20487;-79
2021/06/25 08:44:39;;;;;;;11.35;10.10;;;;;;;24.22;57.05;100776.28;4961622;28;20058;-79
2021/06/25 08:47:05;;;;;;;9.75;7.63;;;;;;;24.05;56.64;100771.00;4975725;28;20039;-80
2021/06/25 08:49:33;;;;;;;10.02;8.13;;;;;;;24.02;56.90;100766.66;4978510;28;20487;-79
2021/06/25 08:51:59;;;;;;;10.40;7.47;;;;;;;23.86;53.84;100773.91;4978803;28;20507;-79
2021/06/25 08:54:24;;;;;;;9.48;7.97;;;;;;;23.16;56.15;100771.50;4960185;28;20046;-79
2021/06/25 08:56:50;;;;;;;9.48;8.48;;;;;;;23.02;57.23;100768.69;4978020;28;20046;-79
2021/06/25 08:59:19;;;;;;;10.93;8.73;;;;;;;23.06;57.50;100764.88;4978524;28;20062;-79
2021/06/25 09:01:50;;;;;;;11.65;9.25;;;;;;;23.11;58.64;100767.34;4977880;28;20042;-79
2021/06/25 09:04:38;;;;;;;11.43;7.68;;;;;;;23.10;57.98;100771.81;4977567;28;20096;-79
2021/06/25 09:07:05;;;;;;;12.30;10.30;;;;;;;23.24;58.01;100772.88;4978068;28;20031;-79
2021/06/25 09:09:42;;;;;;;13.50;8.80;;;;;;;23.18;58.26;100766.88;4961174;28;20042;-79
2021/06/25 09:12:07;;;;;;;9.60;8.57;;;;;;;23.09;58.23;100764.72;4977921;28;20038;-79
2021/06/25 09:14:54;;;;;;;9.23;8.27;;;;;;;23.04;57.94;100765.91;4957651;28;20055;-79
2021/06/25 09:17:20;;;;;;;9.38;8.15;;;;;;;23.21;58.45;100773.06;4978671;28;20050;-79
2021/06/25 09:19:45;;;;;;;10.30;7.30;;;;;;;23.19;57.91;100771.34;4978235;28;20057;-79
2021/06/25 09:22:10;;;;;;;11.13;7.80;;;;;;;22.94;58.35;100773.59;4977998;28;20046;-79
2021/06/25 09:24:36;;;;;;;11.00;8.40;;;;;;;22.42;61.01;100773.63;4977380;28;20038;-79
2021/06/25 09:27:04;;;;;;;10.23;8.27;;;;;;;22.28;63.12;100775.22;4978424;28;20051;-79
2021/06/25 09:29:36;;;;;;;12.40;8.60;;;;;;;22.31;61.38;100775.06;4978481;28;20043;-79
2021/06/25 09:32:06;;;;;;;;;;;;;;;22.07;62.02;100773.59;4975688;28;20098;-79
2021/06/25 09:34:44;;;;;;;10.50;8.20;;;;;;;22.05;63.58;100770.97;4977722;28;19913;-79
2021/06/25 09:37:13;;;;;;;11.23;9.57;;;;;;;22.16;63.26;100770.41;4975991;28;20031;-79
2021/06/25 09:40:03;;;;;;;8.93;8.02;;;;;;;22.18;63.92;100767.66;4977988;28;20027;-79
2021/06/25 09:42:28;;;;;;;9.98;7.80;;;;;;;22.37;62.89;100770.31;4976176;28;20126;-79
2021/06/25 09:45:01;;;;;;;10.10;8.20;;;;;;;22.27;63.19;100767.25;4978737;28;20109;-79
2021/06/25 09:47:31;;;;;;;12.95;8.85;;;;;;;22.33;63.54;100763.38;4976664;28;20105;-79
2021/06/25 09:50:18;;;;;;;11.55;8.00;;;;;;;22.62;62.38;100757.34;4978326;28;20038;-79
2021/06/25 09:52:45;;;;;;;9.48;7.82;;;;;;;22.95;61.67;100761.84;4978204;28;20039;-79
2021/06/25 09:55:11;;;;;;;12.43;8.85;;;;;;;23.05;60.33;100762.25;4959408;28;20094;-79
2021/06/25 10:03:52;;;;;;;11.48;10.27;;;;;;;23.37;60.11;100763.16;4977631;28;20074;-79
2021/06/25 10:06:20;;;;;;;10.10;9.10;;;;;;;23.84;59.56;100756.94;4977570;28;20173;-79
2021/06/25 10:08:46;;;;;;;7.32;6.53;;;;;;;24.20;56.79;100753.91;4956558;28;20036;-79
2021/06/25 10:11:14;;;;;;;6.80;5.30;;;;;;;24.58;53.72;100763.41;4976283;28;20529;-79
2021/06/25 10:13:41;;;;;;;4.57;3.78;;;;;;;24.52;52.35;100758.38;4961018;28;20705;-80
2021/06/25 10:16:08;;;;;;;6.85;3.83;;;;;;;24.64;50.76;100760.31;4975333;28;20034;-80
2021/06/25 10:18:41;;;;;;;6.15;5.20;;;;;;;24.74;50.12;100758.81;4976416;28;20042;-79
2021/06/25 10:21:10;;;;;;;7.93;4.80;;;;;;;25.04;49.13;100757.84;4975894;28;20037;-79
2021/06/25 10:23:37;;;;;;;6.72;5.00;;;;;;;24.91;50.11;100755.03;4976121;28;20038;-79
2021/06/25 10:26:09;;;;;;;9.07;5.45;;;;;;;24.92;50.20;100752.25;4975227;28;20057;-79
2021/06/25 10:28:36;;;;;;;6.35;4.68;;;;;;;25.08;50.55;100754.84;4974395;28;20509;-79
2021/06/25 10:31:02;;;;;;;5.75;4.13;;;;;;;25.30;50.29;100746.28;4957705;28;20495;-79
2021/06/25 10:33:30;;;;;;;7.00;4.60;;;;;;;25.58;50.19;100752.59;4959882;28;20038;-79
2021/06/25 10:35:55;;;;;;;12.40;8.82;;;;;;;26.02;49.68;100754.22;4972837;28;20049;-79
2021/06/25 10:38:25;;;;;;;7.55;5.53;;;;;;;26.49;47.52;100755.53;4976701;28;20047;-79
2021/06/25 10:41:02;;;;;;;9.18;5.35;;;;;;;26.70;46.00;100745.09;4975945;28;20114;-79
2021/06/25 10:43:53;;;;;;;5.70;4.40;;;;;;;26.54;46.90;100750.69;4974016;28;20092;-79
2021/06/25 10:46:24;;;;;;;6.35;4.32;;;;;;;26.63;45.39;100741.94;4973479;28;20534;-79
2021/06/25 10:48:53;;;;;;;8.45;5.20;;;;;;;26.77;45.78;100745.50;4973713;28;20066;-79
2021/06/25 10:51:23;;;;;;;7.53;5.30;;;;;;;26.99;44.94;100740.31;4973981;28;20386;-78
2021/06/25 10:54:15;;;;;;;6.93;4.63;;;;;;;27.29;44.38;100739.94;4973803;28;20031;-79
2021/06/25 10:56:50;;;;;;;6.93;4.80;;;;;;;27.50;44.21;100739.34;4971104;28;20076;-79
2021/06/25 10:59:27;;;;;;;6.03;4.43;;;;;;;27.67;42.90;100738.13;4973526;28;20089;-79
2021/06/25 11:01:57;;;;;;;8.80;5.43;;;;;;;27.00;44.20;100735.75;4949245;28;20039;-79
2021/06/25 11:04:37;;;;;;;7.57;5.00;;;;;;;26.90;45.06;100738.22;4972975;28;20047;-78
2021/06/25 11:07:08;;;;;;;12.48;8.82;;;;;;;27.17;45.34;100731.81;4956580;28;20135;-79
2021/06/25 11:09:54;;;;;;;7.22;6.18;;;;;;;27.25;45.22;100729.47;4970698;28;20403;-79
2021/06/25 11:12:21;;;;;;;7.20;5.85;;;;;;;27.37;45.37;100727.69;4973646;28;20035;-79
2021/06/25 11:14:48;;;;;;;8.07;5.20;;;;;;;27.32;44.86;100733.44;4973217;28;20073;-78
2021/06/25 11:17:52;;;;;;;6.75;5.43;;;;;;;27.10;45.32;100737.69;4970417;28;20034;-79
2021/06/25 11:20:22;;;;;;;9.90;6.97;;;;;;;27.41;45.35;100730.06;4973500;28;20488;-79
2021/06/25 11:22:53;;;;;;;11.45;9.00;;;;;;;27.60;43.83;100734.13;4955218;28;20039;-79
2021/06/25 11:25:37;;;;;;;;;;;;;;;27.57;44.25;100731.66;4973276;28;20085;-79
2021/06/25 11:28:26;;;;;;;14.05;11.80;;;;;;;27.67;44.37;100732.69;4973598;28;19918;-79